Time;durP1;ratioP1;P1;durP2;ratioP2;P2;SDS_P1;SDS_P2;PMS_P1;PMS_P2;Temp;Humidity;BMP_temperature;BMP_pressure;BME280_temperature;BME280_humidity;BME280_pressure;Samples;Min_cycle;Max_cycle;Signal;HPM_P1;HPM_P2
2023/04/20 00:00:38;;;;;;;;;;;17.70;55.90;;;;;;10208851;28;94538;-67
2023/04/20 00:05:40;;;;;;;;;;;17.70;55.80;;;;;;10200537;28;94173;-66
2023/04/20 00:10:43;;;;;;;;;;;17.70;55.80;;;;;;10204990;28;96817;-66
2023/04/20 00:15:45;;;;;;;;;;;17.70;55.70;;;;;;10209642;28;93403;-67
2023/04/20 00:20:46;;;;;;;;;;;17.70;55.90;;;;;;10208430;28;94254;-67
2023/04/20 00:25:50;;;;;;;;;;;17.70;55.70;;;;;;10209123;28;94510;-66
2023/04/20 00:30:52;;;;;;;;;;;17.60;55.70;;;;;;10207068;28;93526;-66
2023/04/20 00:35:55;;;;;;;;;;;17.60;55.70;;;;;;10208405;28;93637;-66
2023/04/20 00:40:57;;;;;;;;;;;17.60;55.60;;;;;;10190368;28;93638;-66
2023/04/20 00:45:58;;;;;;;;;;;17.60;55.60;;;;;;10209150;28;93473;-66
2023/04/20 00:51:00;;;;;;;;;;;17.60;55.60;;;;;;10189489;28;93544;-67
2023/04/20 00:56:02;;;;;;;;;;;17.60;55.60;;;;;;10206811;28;93549;-67
2023/04/20 01:01:04;;;;;;;;;;;17.50;55.50;;;;;;10205449;28;95793;-67
2023/04/20 01:06:06;;;;;;;;;;;17.50;55.50;;;;;;10206944;28;94409;-66
2023/04/20 01:11:07;;;;;;;;;;;17.50;55.40;;;;;;10185122;28;93293;-66
2023/04/20 01:16:10;;;;;;;;;;;17.50;55.40;;;;;;10210479;28;93488;-66
2023/04/20 01:21:13;;;;;;;;;;;17.50;55.40;;;;;;10213877;28;94010;-67
2023/04/20 01:26:15;;;;;;;;;;;17.50;55.40;;;;;;10213606;28;93850;-66
2023/04/20 01:31:17;;;;;;;;;;;17.50;55.50;;;;;;10212989;28;94510;-66
2023/04/20 01:36:19;;;;;;;;;;;17.50;55.50;;;;;;10214556;28;92867;-67
2023/04/20 01:41:20;;;;;;;;;;;17.40;55.40;;;;;;10213504;28;94583;-67
2023/04/20 01:46:22;;;;;;;;;;;17.40;55.40;;;;;;10212882;28;94744;-66
2023/04/20 01:51:24;;;;;;;;;;;17.40;55.50;;;;;;10209991;28;97060;-67
2023/04/20 01:56:26;;;;;;;;;;;17.40;55.50;;;;;;10194681;28;94301;-66
2023/04/20 02:01:28;;;;;;;;;;;17.40;55.50;;;;;;10212628;28;93477;-67
2023/04/20 02:06:30;;;;;;;;;;;17.40;55.60;;;;;;10212619;28;94571;-67
2023/04/20 02:11:32;;;;;;;;;;;17.40;55.60;;;;;;10212153;28;94226;-67
2023/04/20 02:16:34;;;;;;;;;;;17.40;55.60;;;;;;10211953;28;93325;-67
2023/04/20 02:21:36;;;;;;;;;;;17.40;55.60;;;;;;10211520;28;93487;-67
2023/04/20 02:26:37;;;;;;;;;;;17.40;55.50;;;;;;10212591;28;92592;-66
2023/04/20 02:31:39;;;;;;;;;;;17.40;55.60;;;;;;10194194;28;93305;-66
2023/04/20 02:36:41;;;;;;;;;;;17.40;55.60;;;;;;10211145;28;93455;-67
2023/04/20 02:41:42;;;;;;;;;;;17.40;55.50;;;;;;10208991;28;96660;-67
2023/04/20 02:46:44;;;;;;;;;;;17.40;55.60;;;;;;10211012;28;93300;-66
2023/04/20 02:51:46;;;;;;;;;;;17.40;55.60;;;;;;10210514;28;93682;-66
2023/04/20 02:56:48;;;;;;;;;;;17.40;55.60;;;;;;10210955;28;94622;-66
2023/04/20 03:01:49;;;;;;;;;;;17.40;55.50;;;;;;10211428;28;94472;-67
2023/04/20 03:06:52;;;;;;;;;;;17.40;55.50;;;;;;10210515;28;94430;-66
2023/04/20 03:11:54;;;;;;;;;;;17.40;55.50;;;;;;10211142;28;93660;-66
2023/04/20 03:16:57;;;;;;;;;;;17.40;55.30;;;;;;10201909;28;93547;-66
2023/04/20 03:21:58;;;;;;;;;;;17.40;55.40;;;;;;10209656;28;94442;-66
2023/04/20 03:27:00;;;;;;;;;;;17.40;55.40;;;;;;10210181;28;94755;-66
2023/04/20 03:32:02;;;;;;;;;;;17.40;55.40;;;;;;10189970;28;96267;-65
2023/04/20 03:37:04;;;;;;;;;;;17.40;55.30;;;;;;10209282;28;93504;-66
2023/04/20 03:42:06;;;;;;;;;;;17.30;55.30;;;;;;10192684;28;94439;-66
2023/04/20 05:05:07;;;;;;;;;;;17.20;55.60;;;;;;10151747;28;92893;-71
2023/04/20 05:10:10;;;;;;;;;;;17.20;55.50;;;;;;10167387;28;94343;-71
2023/04/20 05:15:16;;;;;;;;;;;17.20;55.60;;;;;;10166277;28;93708;-70
2023/04/20 05:20:18;;;;;;;;;;;17.20;55.70;;;;;;10163341;28;93852;-70
2023/04/20 05:25:20;;;;;;;;;;;17.30;56.00;;;;;;10166608;28;94635;-70
2023/04/20 05:30:21;;;;;;;;;;;17.30;56.20;;;;;;10164455;28;95852;-70
2023/04/20 05:35:23;;;;;;;;;;;17.30;56.20;;;;;;10166958;28;93176;-70
2023/04/20 05:40:25;;;;;;;;;;;17.30;56.30;;;;;;10164956;28;93470;-71
2023/04/20 05:45:27;;;;;;;;;;;17.30;56.60;;;;;;10165570;28;93624;-70
2023/04/20 05:50:30;;;;;;;;;;;17.30;56.60;;;;;;10161257;28;94564;-71
2023/04/20 05:55:32;;;;;;;;;;;17.30;58.60;;;;;;10165943;28;93351;-70
2023/04/20 06:00:34;;;;;;;;;;;17.40;59.10;;;;;;10167062;28;93725;-71
2023/04/20 06:05:36;;;;;;;;;;;17.40;59.00;;;;;;10171313;28;93349;-69
2023/04/20 06:10:37;;;;;;;;;;;17.50;58.70;;;;;;10172361;28;94454;-70
2023/04/20 06:15:39;;;;;;;;;;;17.40;58.20;;;;;;10154900;28;93363;-70
2023/04/20 06:20:44;;;;;;;;;;;17.40;58.20;;;;;;10170039;28;96002;-70
2023/04/20 06:25:45;;;;;;;;;;;17.40;57.80;;;;;;10171865;28;93322;-70
2023/04/20 06:30:47;;;;;;;;;;;17.40;57.70;;;;;;10172784;28;93839;-70
2023/04/20 06:35:50;;;;;;;;;;;17.30;57.70;;;;;;10173283;28;94376;-70
2023/04/20 06:40:52;;;;;;;;;;;17.30;57.50;;;;;;10174014;28;94062;-70
2023/04/20 06:45:53;;;;;;;;;;;17.30;57.60;;;;;;10172779;28;94472;-71
2023/04/20 06:50:55;;;;;;;;;;;17.20;57.40;;;;;;10171265;28;94136;-71
2023/04/20 06:55:57;;;;;;;;;;;17.20;57.40;;;;;;10156402;28;94057;-70
2023/04/20 07:00:59;;;;;;;;;;;17.30;57.60;;;;;;10170962;28;94616;-69
2023/04/20 07:06:01;;;;;;;;;;;17.30;57.30;;;;;;10174816;28;94467;-69
2023/04/20 07:11:02;;;;;;;;;;;17.20;57.30;;;;;;10169268;28;95835;-69
2023/04/20 07:16:04;;;;;;;;;;;17.30;57.30;;;;;;10169393;28;93380;-70
2023/04/20 07:21:05;;;;;;;;;;;17.20;57.20;;;;;;10170104;28;92594;-70
2023/04/20 07:26:07;;;;;;;;;;;17.20;57.20;;;;;;10153510;28;93627;-69
2023/04/20 07:31:09;;;;;;;;;;;17.20;57.20;;;;;;10170160;28;93406;-70
2023/04/20 07:36:11;;;;;;;;;;;17.20;57.20;;;;;;10169942;28;93518;-70
2023/04/20 07:41:13;;;;;;;;;;;17.20;57.20;;;;;;10169167;28;93765;-69
2023/04/20 07:46:18;;;;;;;;;;;17.20;57.20;;;;;;10171133;28;93365;-70
2023/04/20 07:51:20;;;;;;;;;;;17.20;57.20;;;;;;10169722;28;93488;-70
2023/04/20 07:56:22;;;;;;;;;;;17.20;57.30;;;;;;10170229;28;94104;-70
2023/04/20 08:01:25;;;;;;;;;;;17.20;57.20;;;;;;10167259;28;95980;-70
2023/04/20 08:06:26;;;;;;;;;;;17.10;57.10;;;;;;10169368;28;94490;-70
2023/04/20 08:11:28;;;;;;;;;;;17.10;57.10;;;;;;10169423;28;95637;-70
2023/04/20 08:16:30;;;;;;;;;;;17.10;57.20;;;;;;10169006;28;93318;-69
2023/04/20 08:21:32;;;;;;;;;;;17.10;57.10;;;;;;10169141;28;93433;-69
2023/04/20 08:26:34;;;;;;;;;;;17.10;57.10;;;;;;10167845;28;92620;-70
2023/04/20 08:31:36;;;;;;;;;;;17.10;57.10;;;;;;10151434;28;93650;-70
2023/04/20 08:36:38;;;;;;;;;;;17.10;57.20;;;;;;10169876;28;93940;-70
2023/04/20 08:41:40;;;;;;;;;;;17.10;57.10;;;;;;10169459;28;94357;-69
2023/04/20 08:46:44;;;;;;;;;;;17.10;57.10;;;;;;10169182;28;93421;-69
2023/04/20 08:51:46;;;;;;;;;;;17.10;57.10;;;;;;10166791;28;96454;-70
2023/04/20 08:56:48;;;;;;;;;;;17.10;57.20;;;;;;10169427;28;94496;-69
2023/04/20 09:01:50;;;;;;;;;;;17.10;57.20;;;;;;10168825;28;94415;-70
2023/04/20 09:06:53;;;;;;;;;;;17.10;57.30;;;;;;10167873;28;93585;-70
2023/04/20 09:12:05;;;;;;;;;;;17.10;57.20;;;;;;10168908;28;93239;-69
2023/04/20 09:17:09;;;;;;;;;;;17.10;57.20;;;;;;10167986;28;92851;-70
2023/04/20 09:22:11;;;;;;;;;;;17.10;57.20;;;;;;10169706;28;94518;-70
2023/04/20 09:27:16;;;;;;;;;;;17.10;57.20;;;;;;10151916;28;92664;-69
2023/04/20 09:32:21;;;;;;;;;;;17.10;57.20;;;;;;10150075;28;93274;-70
2023/04/20 09:37:24;;;;;;;;;;;17.10;57.10;;;;;;10170761;28;93954;-69
2023/04/20 09:42:27;;;;;;;;;;;17.10;57.20;;;;;;10171196;28;95958;-70
2023/04/20 09:47:30;;;;;;;;;;;17.10;57.20;;;;;;10171254;28;94167;-69
2023/04/20 09:52:32;;;;;;;;;;;17.10;57.20;;;;;;10173893;28;95036;-69
2023/04/20 09:57:35;;;;;;;;;;;17.20;57.20;;;;;;10173532;28;93537;-69
2023/04/20 10:02:37;;;;;;;;;;;17.20;57.10;;;;;;10172329;28;94642;-70
2023/04/20 10:07:39;;;;;;;;;;;17.20;57.10;;;;;;10155566;28;93902;-69
2023/04/20 10:12:46;;;;;;;;;;;17.20;57.10;;;;;;10171919;28;92731;-69
2023/04/20 10:17:48;;;;;;;;;;;17.20;57.10;;;;;;10173156;28;92866;-70
2023/04/20 10:22:51;;;;;;;;;;;17.20;57.10;;;;;;10171980;28;93788;-70
2023/04/20 10:27:54;;;;;;;;;;;17.30;57.10;;;;;;10171639;28;92954;-70
2023/04/20 10:33:06;;;;;;;;;;;17.30;57.10;;;;;;10169792;28;95879;-70
2023/04/20 10:38:10;;;;;;;;;;;17.30;57.00;;;;;;10172662;28;94547;-70
2023/04/20 10:43:20;;;;;;;;;;;17.40;57.00;;;;;;10171582;28;94636;-69
2023/04/20 10:48:22;;;;;;;;;;;17.40;56.80;;;;;;10169712;28;94611;-69
2023/04/20 10:53:23;;;;;;;;;;;17.50;56.80;;;;;;10172052;28;94405;-70
2023/04/20 10:58:25;;;;;;;;;;;17.50;56.80;;;;;;10171352;28;93517;-69
2023/04/20 11:03:28;;;;;;;;;;;17.50;56.70;;;;;;10172064;28;93716;-70
2023/04/20 11:08:40;;;;;;;;;;;17.50;56.70;;;;;;10170825;28;93694;-69
2023/04/20 11:13:42;;;;;;;;;;;17.50;56.70;;;;;;10171028;28;93517;-70
2023/04/20 11:19:03;;;;;;;;;;;17.60;56.60;;;;;;10154415;28;93820;-70
2023/04/20 11:24:17;;;;;;;;;;;17.60;56.60;;;;;;10168199;28;95737;-69
2023/04/20 11:29:31;;;;;;;;;;;17.60;56.50;;;;;;10171590;28;94439;-70
2023/04/20 11:34:33;;;;;;;;;;;17.60;56.50;;;;;;10170359;28;93591;-69
2023/04/20 11:39:35;;;;;;;;;;;17.60;56.60;;;;;;10152485;28;92859;-70
2023/04/20 11:44:40;;;;;;;;;;;17.60;56.70;;;;;;10169573;28;93997;-70
2023/04/20 11:49:41;;;;;;;;;;;17.50;56.70;;;;;;10169152;28;92548;-70
2023/04/20 11:54:43;;;;;;;;;;;17.50;56.70;;;;;;10169495;28;92726;-70
2023/04/20 11:59:46;;;;;;;;;;;17.50;56.80;;;;;;10170408;28;92798;-71
2023/04/20 12:04:48;;;;;;;;;;;17.50;56.80;;;;;;10169690;28;92614;-70
2023/04/20 12:09:50;;;;;;;;;;;17.60;56.80;;;;;;10167505;28;94971;-70
2023/04/20 12:14:52;;;;;;;;;;;17.50;56.90;;;;;;10166132;28;96077;-70
2023/04/20 12:19:54;;;;;;;;;;;17.50;56.90;;;;;;10167971;28;93738;-70
2023/04/20 12:24:55;;;;;;;;;;;17.50;56.90;;;;;;10169409;28;95371;-70
2023/04/20 12:29:58;;;;;;;;;;;17.50;56.90;;;;;;10168988;28;93392;-70
2023/04/20 12:35:00;;;;;;;;;;;17.50;57.00;;;;;;10169111;28;93922;-69
2023/04/20 12:40:05;;;;;;;;;;;17.50;57.10;;;;;;10169166;28;95598;-70
2023/04/20 12:45:07;;;;;;;;;;;17.50;57.10;;;;;;10166986;28;93597;-70
2023/04/20 12:50:09;;;;;;;;;;;17.50;57.10;;;;;;10168211;28;92591;-70
2023/04/20 12:55:11;;;;;;;;;;;17.50;57.20;;;;;;10166314;28;94422;-69
2023/04/20 13:00:13;;;;;;;;;;;17.50;57.20;;;;;;10168072;28;94472;-69
2023/04/20 13:05:15;;;;;;;;;;;17.50;57.30;;;;;;10165315;28;95263;-70
2023/04/20 13:10:17;;;;;;;;;;;17.40;57.30;;;;;;10167909;28;94814;-70
2023/04/20 13:15:21;;;;;;;;;;;17.50;57.40;;;;;;10174801;28;94486;-70
2023/04/20 13:20:39;;;;;;;;;;;17.50;57.40;;;;;;10174528;28;95113;-69
2023/04/20 13:25:41;;;;;;;;;;;17.50;57.30;;;;;;10174254;28;94278;-70
2023/04/20 13:30:43;;;;;;;;;;;17.50;57.30;;;;;;10174061;28;93506;-69
2023/04/20 13:35:44;;;;;;;;;;;17.50;58.40;;;;;;10175031;28;94280;-69
2023/04/20 13:40:47;;;;;;;;;;;17.50;57.40;;;;;;10158283;28;92933;-70
2023/04/20 13:45:48;;;;;;;;;;;17.50;57.40;;;;;;10174877;28;94687;-70
2023/04/20 13:50:50;;;;;;;;;;;17.60;57.50;;;;;;10173187;28;93695;-70
2023/04/20 13:55:52;;;;;;;;;;;17.60;57.50;;;;;;10154170;28;95520;-70
2023/04/20 14:00:54;;;;;;;;;;;17.60;57.50;;;;;;10174279;28;94592;-70
2023/04/20 14:05:55;;;;;;;;;;;17.50;57.50;;;;;;10173817;28;93610;-70
2023/04/20 14:10:58;;;;;;;;;;;17.60;57.60;;;;;;10175092;28;95755;-71
2023/04/20 14:16:00;;;;;;;;;;;17.50;57.60;;;;;;10159423;28;93189;-70
2023/04/20 14:21:02;;;;;;;;;;;17.50;57.60;;;;;;10177545;28;94489;-68
2023/04/20 14:26:04;;;;;;;;;;;17.50;57.50;;;;;;10160678;28;94603;-69
2023/04/20 14:31:05;;;;;;;;;;;17.50;57.60;;;;;;10177951;28;92654;-70
2023/04/20 14:36:07;;;;;;;;;;;17.50;57.60;;;;;;10175256;28;93551;-69
2023/04/20 14:41:09;;;;;;;;;;;17.60;57.70;;;;;;10174144;28;94682;-69
2023/04/20 14:46:10;;;;;;;;;;;17.60;57.70;;;;;;10171021;28;97334;-69
2023/04/20 14:51:12;;;;;;;;;;;17.60;57.70;;;;;;10172114;28;94811;-70
2023/04/20 14:56:14;;;;;;;;;;;17.50;57.70;;;;;;10171300;28;94543;-70
2023/04/20 15:01:16;;;;;;;;;;;17.50;57.70;;;;;;10172474;28;94575;-70
2023/04/20 15:06:18;;;;;;;;;;;17.60;57.80;;;;;;10171562;28;93436;-69
2023/04/20 15:11:20;;;;;;;;;;;17.60;57.90;;;;;;10172255;28;93473;-70
2023/04/20 15:16:21;;;;;;;;;;;17.60;57.90;;;;;;10170001;28;94150;-70
2023/04/20 15:21:23;;;;;;;;;;;17.60;58.00;;;;;;10172146;28;93044;-69
2023/04/20 15:26:25;;;;;;;;;;;17.70;58.00;;;;;;10171211;28;93252;-69
2023/04/20 15:31:27;;;;;;;;;;;17.70;58.10;;;;;;10170371;28;93242;-69
2023/04/20 15:36:29;;;;;;;;;;;17.70;58.20;;;;;;10166561;28;95925;-70
2023/04/20 15:41:31;;;;;;;;;;;17.80;58.30;;;;;;10169444;28;93553;-70
2023/04/20 15:46:33;;;;;;;;;;;17.80;58.80;;;;;;10169410;28;97668;-70
2023/04/20 15:51:34;;;;;;;;;;;17.80;58.30;;;;;;10168703;28;93496;-70
2023/04/20 15:56:36;;;;;;;;;;;17.90;58.50;;;;;;10169210;28;92924;-69
2023/04/20 16:01:38;;;;;;;;;;;17.90;58.50;;;;;;10167412;28;93555;-68
2023/04/20 16:06:40;;;;;;;;;;;17.90;58.40;;;;;;10167389;28;93803;-68
2023/04/20 16:11:41;;;;;;;;;;;17.90;58.50;;;;;;10169262;28;92668;-68
2023/04/20 16:16:43;;;;;;;;;;;17.90;58.60;;;;;;10168230;28;93969;-69
2023/04/20 16:21:45;;;;;;;;;;;18.00;58.80;;;;;;10151015;28;93109;-69
2023/04/20 16:26:47;;;;;;;;;;;18.10;59.00;;;;;;10167665;28;96636;-72
2023/04/20 16:31:49;;;;;;;;;;;18.10;59.10;;;;;;10155401;28;93167;-71
2023/04/20 16:36:51;;;;;;;;;;;18.20;59.00;;;;;;10168392;28;94384;-72
2023/04/20 16:41:53;;;;;;;;;;;18.30;59.90;;;;;;10168629;28;92543;-71
2023/04/20 16:46:55;;;;;;;;;;;18.30;60.10;;;;;;10165547;28;93706;-71
2023/04/20 16:51:57;;;;;;;;;;;18.40;60.00;;;;;;10167052;28;94426;-71
2023/04/20 16:57:00;;;;;;;;;;;18.40;60.30;;;;;;10167167;28;93935;-70
2023/04/20 17:02:02;;;;;;;;;;;18.40;60.50;;;;;;10167494;28;92753;-70
2023/04/20 17:07:03;;;;;;;;;;;18.40;60.30;;;;;;10169051;28;94499;-71
2023/04/20 17:12:06;;;;;;;;;;;18.30;60.50;;;;;;10168357;28;94493;-70
2023/04/20 17:17:08;;;;;;;;;;;18.30;60.70;;;;;;10165885;28;96223;-70
2023/04/20 17:22:09;;;;;;;;;;;18.30;60.90;;;;;;10167733;28;94660;-71
2023/04/20 17:27:11;;;;;;;;;;;18.30;61.00;;;;;;10149683;28;93880;-70
2023/04/20 17:32:13;;;;;;;;;;;18.30;61.20;;;;;;10166160;28;93825;-70
2023/04/20 17:37:15;;;;;;;;;;;18.20;61.20;;;;;;10167195;28;93682;-70
2023/04/20 17:42:16;;;;;;;;;;;18.20;61.30;;;;;;10164002;28;93482;-67
2023/04/20 17:47:18;;;;;;;;;;;18.20;61.40;;;;;;10166625;28;94506;-67
2023/04/20 17:52:21;;;;;;;;;;;18.10;61.20;;;;;;10149655;28;93777;-67
2023/04/20 17:57:22;;;;;;;;;;;18.10;61.10;;;;;;10151408;28;93434;-67
2023/04/20 18:02:24;;;;;;;;;;;18.10;61.10;;;;;;10171471;28;93822;-68
2023/04/20 18:07:26;;;;;;;;;;;18.00;61.10;;;;;;10169706;28;96809;-67
2023/04/20 18:12:29;;;;;;;;;;;18.00;60.90;;;;;;10172259;28;93269;-67
2023/04/20 18:17:30;;;;;;;;;;;18.00;60.90;;;;;;10172368;28;93537;-67
2023/04/20 18:22:32;;;;;;;;;;;17.90;60.80;;;;;;10172504;28;94813;-67
2023/04/20 18:27:34;;;;;;;;;;;17.90;60.80;;;;;;10172094;28;93733;-67
2023/04/20 18:32:37;;;;;;;;;;;17.90;60.90;;;;;;10172533;28;93840;-67
2023/04/20 18:37:39;;;;;;;;;;;17.90;60.90;;;;;;10172025;28;93487;-66
2023/04/20 18:42:41;;;;;;;;;;;17.90;60.90;;;;;;10172616;28;92720;-67
2023/04/20 18:47:42;;;;;;;;;;;18.00;60.80;;;;;;10171613;28;93300;-67
2023/04/20 18:52:44;;;;;;;;;;;18.00;60.80;;;;;;10171743;28;94026;-66
2023/04/20 18:57:46;;;;;;;;;;;18.00;60.70;;;;;;10151619;28;95929;-67
2023/04/20 19:02:47;;;;;;;;;;;18.00;60.70;;;;;;10153080;28;93528;-67
2023/04/20 19:07:49;;;;;;;;;;;18.00;60.70;;;;;;10169278;28;93412;-66
2023/04/20 19:12:51;;;;;;;;;;;18.00;60.70;;;;;;10171466;28;93468;-67
2023/04/20 19:17:54;;;;;;;;;;;18.00;60.70;;;;;;10173771;28;94108;-67
2023/04/20 19:22:56;;;;;;;;;;;18.00;60.80;;;;;;10170937;28;94572;-66
2023/04/20 19:27:58;;;;;;;;;;;18.00;60.80;;;;;;10171843;28;93251;-66
2023/04/20 19:33:03;;;;;;;;;;;18.00;60.80;;;;;;10170333;28;92921;-66
2023/04/20 19:38:05;;;;;;;;;;;18.00;60.90;;;;;;10170003;28;92573;-66
2023/04/20 19:43:06;;;;;;;;;;;18.00;60.90;;;;;;10171107;28;93483;-67
2023/04/20 19:48:08;;;;;;;;;;;18.00;60.90;;;;;;10150745;28;95753;-67
2023/04/20 19:53:12;;;;;;;;;;;18.00;61.00;;;;;;10169190;28;113205;-67
2023/04/20 19:58:14;;;;;;;;;;;18.00;61.00;;;;;;10170426;28;94385;-67
2023/04/20 20:03:15;;;;;;;;;;;18.00;61.00;;;;;;10168806;28;93543;-67
2023/04/20 20:08:18;;;;;;;;;;;17.90;61.10;;;;;;10169440;28;93436;-67
2023/04/20 20:13:19;;;;;;;;;;;17.90;61.10;;;;;;10169778;28;93776;-65
2023/04/20 20:18:22;;;;;;;;;;;17.90;61.10;;;;;;10168171;28;94625;-65
2023/04/20 20:23:24;;;;;;;;;;;17.90;61.10;;;;;;10169746;28;93796;-67
2023/04/20 20:28:25;;;;;;;;;;;17.90;61.20;;;;;;10170238;28;96252;-66
2023/04/20 20:33:27;;;;;;;;;;;17.90;61.10;;;;;;10168380;28;93860;-67
2023/04/20 20:38:29;;;;;;;;;;;17.90;61.10;;;;;;10149635;28;96078;-65
2023/04/20 20:43:31;;;;;;;;;;;17.80;61.10;;;;;;10168518;28;94904;-66
2023/04/20 20:48:33;;;;;;;;;;;17.80;61.20;;;;;;10148906;28;93487;-65
2023/04/20 20:53:35;;;;;;;;;;;17.80;61.20;;;;;;10166988;28;94252;-66
2023/04/20 20:58:36;;;;;;;;;;;17.80;61.00;;;;;;10167964;28;93814;-66
2023/04/20 21:03:38;;;;;;;;;;;17.80;61.00;;;;;;10166417;28;92525;-66
2023/04/20 21:08:41;;;;;;;;;;;17.80;60.90;;;;;;10168103;28;94824;-66
2023/04/20 21:13:42;;;;;;;;;;;17.70;60.90;;;;;;10150439;28;92725;-66
2023/04/20 21:18:44;;;;;;;;;;;17.70;60.80;;;;;;10167510;28;93649;-66
2023/04/20 21:23:47;;;;;;;;;;;17.70;60.70;;;;;;10166703;28;93466;-67
2023/04/20 21:28:49;;;;;;;;;;;17.70;60.70;;;;;;10164162;28;96106;-66
2023/04/20 21:33:51;;;;;;;;;;;17.70;60.80;;;;;;10171237;28;93555;-69
2023/04/20 21:38:53;;;;;;;;;;;17.70;60.80;;;;;;10172648;28;94142;-65
2023/04/20 21:43:55;;;;;;;;;;;17.60;60.60;;;;;;10156486;28;92686;-66
2023/04/20 21:48:56;;;;;;;;;;;17.60;60.60;;;;;;10172228;28;92541;-65
2023/04/20 21:53:58;;;;;;;;;;;17.60;60.60;;;;;;10172664;28;93416;-66
2023/04/20 21:59:00;;;;;;;;;;;17.60;60.60;;;;;;10155776;28;93425;-67
2023/04/20 22:04:03;;;;;;;;;;;17.60;60.60;;;;;;10172003;28;92933;-66
2023/04/20 22:09:05;;;;;;;;;;;17.50;60.50;;;;;;10171914;28;93516;-67
2023/04/20 22:14:07;;;;;;;;;;;17.50;60.40;;;;;;10154768;28;94460;-66
2023/04/20 22:19:09;;;;;;;;;;;17.50;60.40;;;;;;10170421;28;96749;-66
2023/04/20 22:24:10;;;;;;;;;;;17.50;60.30;;;;;;10172163;28;94239;-67
2023/04/20 22:29:12;;;;;;;;;;;17.50;60.40;;;;;;10172305;28;93528;-67
2023/04/20 22:34:14;;;;;;;;;;;17.50;60.30;;;;;;10172029;28;93264;-66
2023/04/20 22:39:16;;;;;;;;;;;17.50;60.40;;;;;;10172959;28;94519;-67
2023/04/20 22:44:18;;;;;;;;;;;17.50;60.40;;;;;;10172728;28;94513;-67
2023/04/20 22:49:22;;;;;;;;;;;17.50;60.40;;;;;;10171510;28;94503;-67
2023/04/20 22:54:23;;;;;;;;;;;17.50;60.40;;;;;;10173552;28;93788;-67
2023/04/20 22:59:25;;;;;;;;;;;17.50;60.30;;;;;;10171822;28;93734;-67
2023/04/20 23:04:28;;;;;;;;;;;17.50;60.30;;;;;;10173516;28;94337;-67
2023/04/20 23:09:33;;;;;;;;;;;17.50;60.20;;;;;;10167887;28;96899;-67
2023/04/20 23:14:36;;;;;;;;;;;17.50;60.30;;;;;;10154793;28;95798;-66
2023/04/20 23:19:39;;;;;;;;;;;17.50;60.10;;;;;;10171550;28;94485;-68
2023/04/20 23:24:40;;;;;;;;;;;17.50;60.10;;;;;;10171795;28;94487;-67
2023/04/20 23:29:42;;;;;;;;;;;17.50;60.10;;;;;;10172486;28;93471;-66
2023/04/20 23:34:44;;;;;;;;;;;17.50;60.00;;;;;;10154728;28;93872;-68
2023/04/20 23:39:46;;;;;;;;;;;17.50;60.00;;;;;;10169990;28;93281;-68
2023/04/20 23:44:48;;;;;;;;;;;17.50;60.00;;;;;;10171421;28;92384;-67
2023/04/20 23:49:49;;;;;;;;;;;17.50;60.00;;;;;;10169929;28;93508;-67
2023/04/20 23:54:51;;;;;;;;;;;17.50;60.00;;;;;;10169863;28;93145;-67
2023/04/20 23:59:53;;;;;;;;;;;17.50;59.90;;;;;;10167354;28;95512;-68
